createdAt,value
2017-12-27T00:01:45.385Z,4.10
2017-12-27T00:04:21.000Z,5.40
2017-12-27T00:06:56.573Z,4.10
2017-12-27T00:09:32.218Z,4.97
2017-12-27T00:12:07.860Z,4.60
2017-12-27T00:14:43.543Z,4.30
2017-12-27T00:17:19.142Z,4.10
2017-12-27T00:19:54.681Z,3.43
2017-12-27T00:22:30.247Z,4.10
2017-12-27T00:25:05.847Z,4.10
2017-12-27T00:27:41.543Z,4.47
2017-12-27T00:30:17.116Z,3.70
2017-12-27T00:32:47.199Z,4.07
2017-12-27T00:35:17.106Z,3.73
2017-12-27T00:37:46.985Z,4.40
2017-12-27T00:40:17.153Z,3.87
2017-12-27T00:42:47.326Z,3.40
2017-12-27T00:45:17.200Z,3.83
2017-12-27T00:47:47.116Z,4.57
2017-12-27T00:50:17.024Z,4.40
2017-12-27T00:52:46.922Z,4.10
2017-12-27T00:55:16.899Z,3.70
2017-12-27T00:57:46.794Z,4.30
2017-12-27T01:00:16.745Z,4.47
2017-12-27T01:02:46.619Z,3.40
2017-12-27T01:05:16.556Z,4.10
2017-12-27T01:07:46.411Z,3.87
2017-12-27T01:10:16.309Z,3.50
2017-12-27T01:12:46.215Z,3.87
2017-12-27T01:15:16.125Z,3.67
2017-12-27T01:17:46.011Z,3.17
2017-12-27T01:20:16.000Z,3.90
2017-12-27T01:22:45.873Z,3.17
2017-12-27T01:25:15.732Z,3.30
2017-12-27T01:27:45.632Z,3.10
2017-12-27T01:30:15.505Z,3.00
2017-12-27T01:32:45.421Z,3.30
2017-12-27T01:35:15.293Z,3.30
2017-12-27T01:37:45.194Z,3.63
2017-12-27T01:40:15.073Z,3.27
2017-12-27T01:42:44.964Z,2.57
2017-12-27T01:45:14.840Z,3.20
2017-12-27T01:47:44.707Z,3.47
2017-12-27T01:50:14.653Z,2.83
2017-12-27T01:52:44.529Z,3.57
2017-12-27T01:55:14.582Z,2.80
2017-12-27T01:57:44.463Z,3.10
2017-12-27T02:00:14.347Z,2.60
2017-12-27T02:02:44.249Z,3.33
2017-12-27T02:05:14.157Z,2.77
2017-12-27T02:07:44.038Z,2.97
2017-12-27T02:10:13.931Z,2.87
2017-12-27T02:12:43.816Z,2.43
2017-12-27T02:15:13.655Z,2.73
2017-12-27T02:17:43.551Z,2.60
2017-12-27T02:20:13.422Z,2.73
2017-12-27T02:22:43.319Z,2.30
2017-12-27T02:25:13.273Z,2.30
2017-12-27T02:27:43.201Z,2.47
2017-12-27T02:30:13.074Z,3.73
2017-12-27T02:32:42.954Z,2.50
2017-12-27T02:35:12.869Z,2.00
2017-12-27T02:37:42.793Z,2.67
2017-12-27T02:40:27.557Z,2.33
2017-12-27T02:42:57.464Z,2.60
2017-12-27T02:45:27.375Z,2.47
2017-12-27T02:47:57.364Z,3.13
2017-12-27T02:50:27.260Z,2.83
2017-12-27T02:52:57.135Z,3.33
2017-12-27T02:55:27.017Z,4.20
2017-12-27T02:57:56.897Z,3.53
2017-12-27T03:00:26.793Z,3.97
2017-12-27T03:02:56.739Z,3.90
2017-12-27T03:05:26.660Z,3.43
2017-12-27T03:07:56.557Z,3.97
2017-12-27T03:10:26.447Z,5.03
2017-12-27T03:12:56.343Z,3.07
2017-12-27T03:15:26.208Z,3.67
2017-12-27T03:17:56.131Z,3.30
2017-12-27T03:20:26.299Z,2.50
2017-12-27T03:22:56.214Z,2.73
2017-12-27T03:25:26.073Z,2.30
2017-12-27T03:27:55.953Z,2.27
2017-12-27T03:30:25.844Z,3.53
2017-12-27T03:32:55.756Z,2.47
2017-12-27T03:35:25.640Z,2.27
2017-12-27T03:37:55.529Z,1.70
2017-12-27T03:40:25.436Z,2.00
2017-12-27T03:42:55.389Z,2.33
2017-12-27T03:45:25.249Z,2.17
2017-12-27T03:47:55.130Z,1.90
2017-12-27T03:50:25.005Z,1.80
2017-12-27T03:52:54.954Z,1.63
2017-12-27T03:55:24.848Z,1.80
2017-12-27T03:57:54.834Z,1.70
2017-12-27T04:00:24.718Z,1.40
2017-12-27T04:02:54.634Z,1.37
2017-12-27T04:05:24.500Z,1.47
2017-12-27T04:07:54.392Z,1.50
2017-12-27T04:10:24.278Z,1.63
2017-12-27T04:12:54.203Z,1.60
2017-12-27T04:15:24.071Z,1.90
2017-12-27T04:17:53.956Z,1.30
2017-12-27T04:20:23.875Z,1.57
2017-12-27T04:22:53.759Z,2.93
2017-12-27T04:25:23.648Z,1.57
2017-12-27T04:27:53.524Z,1.80
2017-12-27T04:30:23.429Z,1.60
2017-12-27T04:32:53.300Z,1.97
2017-12-27T04:35:23.292Z,2.73
2017-12-27T04:37:53.167Z,1.73
2017-12-27T04:40:23.045Z,1.60
2017-12-27T04:42:52.921Z,1.40
2017-12-27T04:45:22.783Z,1.97
2017-12-27T04:47:52.685Z,1.50
2017-12-27T04:50:22.665Z,1.47
2017-12-27T04:52:52.797Z,1.23
2017-12-27T04:55:22.679Z,1.83
2017-12-27T04:57:52.573Z,1.70
2017-12-27T05:00:22.468Z,2.20
2017-12-27T05:02:52.390Z,1.37
2017-12-27T05:05:22.262Z,1.53
2017-12-27T05:07:52.175Z,2.07
2017-12-27T05:10:22.080Z,1.70
2017-12-27T05:12:51.982Z,1.27
2017-12-27T05:15:21.839Z,1.77
2017-12-27T05:17:51.793Z,1.50
2017-12-27T05:20:21.687Z,1.30
2017-12-27T05:22:51.563Z,1.23
2017-12-27T05:25:21.460Z,1.77
2017-12-27T05:27:51.328Z,1.90
2017-12-27T05:30:21.213Z,1.80
2017-12-27T05:32:51.082Z,1.97
2017-12-27T05:35:20.952Z,1.30
2017-12-27T05:37:50.839Z,1.63
2017-12-27T05:40:20.805Z,1.53
2017-12-27T05:42:50.824Z,1.67
2017-12-27T05:45:20.724Z,2.27
2017-12-27T05:47:50.601Z,1.57
2017-12-27T05:50:20.463Z,1.50
2017-12-27T05:52:50.381Z,2.07
2017-12-27T05:55:20.255Z,2.23
2017-12-27T05:57:50.152Z,2.07
2017-12-27T06:00:20.036Z,2.17
2017-12-27T06:02:49.931Z,1.70
2017-12-27T06:05:19.902Z,1.90
2017-12-27T06:07:49.787Z,2.70
2017-12-27T06:10:19.729Z,1.40
2017-12-27T06:12:49.624Z,1.67
2017-12-27T06:15:19.551Z,1.20
2017-12-27T06:17:49.436Z,1.67
2017-12-27T06:20:19.339Z,2.27
2017-12-27T06:22:49.261Z,1.80
2017-12-27T06:25:19.224Z,1.30
2017-12-27T06:27:49.102Z,1.40
2017-12-27T06:30:19.007Z,2.10
2017-12-27T06:32:48.915Z,1.27
2017-12-27T06:35:18.797Z,1.37
2017-12-27T06:37:48.688Z,1.70
2017-12-27T06:40:18.556Z,1.83
2017-12-27T06:42:48.468Z,1.63
2017-12-27T06:45:18.345Z,2.57
2017-12-27T06:47:48.260Z,1.60
2017-12-27T06:50:18.149Z,1.70
2017-12-27T06:52:48.047Z,1.73
2017-12-27T06:55:17.917Z,1.93
2017-12-27T06:57:47.805Z,1.60
2017-12-27T07:00:17.720Z,2.13
2017-12-27T07:02:47.594Z,1.70
2017-12-27T07:05:17.549Z,1.53
2017-12-27T07:07:47.419Z,2.77
2017-12-27T07:10:17.347Z,1.10
2017-12-27T07:12:47.228Z,1.30
2017-12-27T07:15:17.148Z,1.70
2017-12-27T07:17:47.047Z,1.70
2017-12-27T07:20:16.930Z,1.53
2017-12-27T07:22:46.800Z,1.50
2017-12-27T07:25:16.685Z,2.10
2017-12-27T07:27:46.580Z,2.03
2017-12-27T07:30:16.488Z,2.07
2017-12-27T07:32:46.405Z,2.53
2017-12-27T07:35:16.356Z,2.40
2017-12-27T07:37:46.249Z,2.53
2017-12-27T07:40:16.136Z,2.43
2017-12-27T07:42:46.228Z,3.90
2017-12-27T07:45:16.108Z,4.30
2017-12-27T07:47:45.977Z,2.67
2017-12-27T07:50:15.931Z,2.87
2017-12-27T07:52:45.816Z,2.20
2017-12-27T07:55:15.734Z,1.93
2017-12-27T07:57:45.596Z,2.60
2017-12-27T08:00:15.515Z,2.73
2017-12-27T08:02:45.390Z,2.00
2017-12-27T08:05:15.314Z,2.30
2017-12-27T08:07:45.185Z,2.07
2017-12-27T08:10:15.183Z,1.53
2017-12-27T08:12:45.051Z,1.70
2017-12-27T08:15:14.971Z,1.83
2017-12-27T08:17:44.845Z,2.10
2017-12-27T08:20:14.869Z,2.30
2017-12-27T08:22:44.785Z,2.07
2017-12-27T08:25:14.658Z,1.70
2017-12-27T08:27:44.573Z,1.87
2017-12-27T08:30:14.534Z,1.53
2017-12-27T08:32:44.481Z,1.53
2017-12-27T08:35:14.350Z,1.73
2017-12-27T08:37:44.258Z,1.87
2017-12-27T08:40:14.137Z,1.27
2017-12-27T08:42:44.161Z,1.93
2017-12-27T08:45:14.044Z,1.83
2017-12-27T08:47:44.051Z,2.10
2017-12-27T08:50:13.954Z,1.57
2017-12-27T08:52:43.819Z,1.83
2017-12-27T08:55:13.738Z,1.60
2017-12-27T08:57:43.632Z,1.37
2017-12-27T09:00:13.556Z,1.63
2017-12-27T09:02:43.436Z,1.90
2017-12-27T09:05:13.400Z,1.70
2017-12-27T09:07:43.293Z,1.40
2017-12-27T09:10:13.203Z,1.90
2017-12-27T09:12:43.118Z,2.23
2017-12-27T09:15:13.042Z,1.60
2017-12-27T09:17:42.930Z,1.30
2017-12-27T09:20:12.853Z,1.17
2017-12-27T09:22:42.781Z,2.53
2017-12-27T09:25:12.655Z,1.67
2017-12-27T09:27:42.560Z,1.30
2017-12-27T09:30:12.441Z,1.40
2017-12-27T09:32:42.342Z,1.50
2017-12-27T09:35:12.263Z,1.60
2017-12-27T09:37:42.185Z,2.30
2017-12-27T09:40:12.182Z,1.77
2017-12-27T09:42:42.099Z,1.80
2017-12-27T09:45:12.084Z,1.90
2017-12-27T09:47:41.970Z,1.87
2017-12-27T09:50:11.840Z,1.63
2017-12-27T09:52:41.753Z,1.40
2017-12-27T09:55:11.669Z,1.73
2017-12-27T09:57:41.749Z,2.20
2017-12-27T10:00:11.670Z,1.50
2017-12-27T10:02:41.570Z,1.87
2017-12-27T10:05:11.483Z,2.23
2017-12-27T10:07:41.362Z,2.30
2017-12-27T10:10:11.268Z,2.30
2017-12-27T10:12:41.145Z,1.93
2017-12-27T10:15:11.027Z,1.57
2017-12-27T10:17:40.901Z,2.00
2017-12-27T10:20:10.788Z,1.83
2017-12-27T10:22:41.349Z,1.83
2017-12-27T10:25:11.328Z,1.67
2017-12-27T10:27:41.246Z,2.87
2017-12-27T10:30:11.122Z,2.77
2017-12-27T10:32:41.042Z,2.30
2017-12-27T10:35:10.924Z,1.87
2017-12-27T10:37:41.246Z,1.90
2017-12-27T10:40:11.133Z,1.97
2017-12-27T10:42:41.116Z,1.90
2017-12-27T10:45:10.989Z,2.53
2017-12-27T10:47:40.886Z,2.97
2017-12-27T10:50:10.756Z,1.70
2017-12-27T10:52:40.733Z,2.07
2017-12-27T10:55:10.631Z,2.27
2017-12-27T10:57:40.538Z,1.77
2017-12-27T11:00:10.450Z,2.70
2017-12-27T11:02:40.345Z,2.40
2017-12-27T11:05:10.210Z,1.97
2017-12-27T11:07:40.114Z,2.57
2017-12-27T11:10:10.529Z,3.07
2017-12-27T11:12:40.431Z,2.33
2017-12-27T11:15:11.139Z,2.13
2017-12-27T11:17:41.030Z,2.70
2017-12-27T11:20:10.919Z,2.40
2017-12-27T11:22:40.809Z,2.07
2017-12-27T11:25:10.736Z,2.00
2017-12-27T11:27:40.755Z,2.90
2017-12-27T11:30:10.724Z,2.50
2017-12-27T11:32:40.656Z,2.67
2017-12-27T11:35:10.527Z,1.80
2017-12-27T11:37:40.476Z,2.60
2017-12-27T11:40:10.354Z,2.33
2017-12-27T11:42:40.245Z,2.33
2017-12-27T11:45:10.155Z,2.00
2017-12-27T11:47:40.059Z,2.17
2017-12-27T11:50:09.987Z,2.20
2017-12-27T11:52:39.937Z,2.00
2017-12-27T11:55:09.854Z,1.80
2017-12-27T11:57:39.797Z,2.30
2017-12-27T12:00:09.731Z,2.33
2017-12-27T12:02:39.624Z,1.67
2017-12-27T12:05:09.568Z,2.23
2017-12-27T12:07:40.276Z,1.73
2017-12-27T12:10:10.179Z,2.20
2017-12-27T12:12:40.061Z,2.20
2017-12-27T12:15:10.002Z,1.97
2017-12-27T12:17:39.951Z,1.87
2017-12-27T12:20:09.833Z,2.33
2017-12-27T12:22:39.776Z,1.87
2017-12-27T12:25:09.737Z,2.33
2017-12-27T12:27:39.646Z,3.07
2017-12-27T12:30:09.665Z,2.50
2017-12-27T12:32:39.575Z,2.43
2017-12-27T12:35:09.823Z,2.47
2017-12-27T12:37:39.772Z,2.00
2017-12-27T12:40:09.719Z,1.93
2017-12-27T12:42:39.703Z,2.20
2017-12-27T12:45:09.648Z,2.67
2017-12-27T12:47:39.564Z,2.17
2017-12-27T12:50:09.449Z,2.03
2017-12-27T12:52:39.454Z,2.30
2017-12-27T12:55:09.308Z,1.90
2017-12-27T12:57:39.206Z,2.00
2017-12-27T13:00:09.072Z,2.30
2017-12-27T13:02:38.981Z,2.40
2017-12-27T13:05:09.357Z,2.80
2017-12-27T13:07:39.256Z,1.67
2017-12-27T13:10:09.147Z,2.00
2017-12-27T13:12:39.926Z,2.17
2017-12-27T13:15:09.884Z,2.20
2017-12-27T13:17:39.786Z,2.00
2017-12-27T13:20:09.691Z,1.97
2017-12-27T13:22:39.521Z,1.97
2017-12-27T13:25:09.492Z,2.40
2017-12-27T13:27:39.354Z,2.57
2017-12-27T13:30:09.278Z,3.60
2017-12-27T13:32:39.656Z,2.33
2017-12-27T13:35:09.580Z,2.10
2017-12-27T13:37:39.475Z,2.10
2017-12-27T13:40:09.392Z,3.00
2017-12-27T13:42:39.295Z,2.67
2017-12-27T13:45:09.194Z,2.30
2017-12-27T13:47:39.092Z,2.87
2017-12-27T13:50:09.078Z,2.53
2017-12-27T13:52:38.958Z,2.27
2017-12-27T13:55:09.692Z,2.43
2017-12-27T13:57:39.600Z,2.37
2017-12-27T14:00:09.487Z,2.40
2017-12-27T14:02:39.562Z,3.13
2017-12-27T14:05:09.445Z,2.40
2017-12-27T14:07:39.367Z,2.33
2017-12-27T14:10:09.289Z,2.17
2017-12-27T14:12:39.199Z,2.40
2017-12-27T14:15:09.114Z,2.30
2017-12-27T14:17:39.023Z,2.30
2017-12-27T14:20:08.949Z,2.20
2017-12-27T14:22:38.896Z,2.60
2017-12-27T14:25:08.817Z,2.80
2017-12-27T14:27:38.786Z,2.27
2017-12-27T14:30:08.689Z,2.10
2017-12-27T14:32:38.601Z,3.07
2017-12-27T14:35:08.596Z,2.60
2017-12-27T14:37:38.468Z,2.30
2017-12-27T14:40:08.582Z,2.60
2017-12-27T14:42:39.097Z,2.50
2017-12-27T14:45:09.044Z,3.47
2017-12-27T14:47:38.953Z,3.27
2017-12-27T14:50:08.865Z,2.60
2017-12-27T14:52:38.837Z,2.00
2017-12-27T14:55:08.774Z,3.17
2017-12-27T14:57:38.692Z,2.83
2017-12-27T15:00:08.625Z,3.77
2017-12-27T15:02:38.578Z,3.07
2017-12-27T15:05:08.544Z,3.00
2017-12-27T15:07:38.457Z,9.23
2017-12-27T15:10:08.353Z,2.70
2017-12-27T15:12:38.345Z,3.07
2017-12-27T15:15:08.292Z,2.83
2017-12-27T15:17:38.128Z,2.60
2017-12-27T15:20:08.028Z,2.73
2017-12-27T15:22:37.943Z,2.90
2017-12-27T15:25:07.824Z,3.17
2017-12-27T15:27:37.726Z,2.90
2017-12-27T15:30:07.609Z,2.40
2017-12-27T15:32:37.523Z,2.57
2017-12-27T15:35:07.382Z,2.30
2017-12-27T15:37:37.306Z,3.07
2017-12-27T15:40:07.208Z,2.77
2017-12-27T15:42:37.156Z,2.80
2017-12-27T15:45:07.070Z,3.03
2017-12-27T15:47:36.958Z,2.97
2017-12-27T15:50:06.842Z,3.20
2017-12-27T15:52:36.878Z,3.57
2017-12-27T15:55:06.782Z,2.87
2017-12-27T15:57:36.663Z,2.43
2017-12-27T16:00:06.600Z,2.80
2017-12-27T16:02:36.634Z,2.80
2017-12-27T16:05:06.553Z,2.90
2017-12-27T16:07:36.552Z,2.83
2017-12-27T16:10:06.500Z,2.50
2017-12-27T16:12:36.401Z,3.40
2017-12-27T16:15:06.320Z,3.33
2017-12-27T16:17:36.247Z,3.40
2017-12-27T16:20:07.650Z,2.60
2017-12-27T16:22:37.516Z,3.30
2017-12-27T16:25:07.427Z,3.47
2017-12-27T16:27:37.343Z,3.77
2017-12-27T16:30:07.220Z,3.47
2017-12-27T16:32:37.135Z,3.23
2017-12-27T16:35:07.050Z,3.40
2017-12-27T16:37:37.039Z,3.37
2017-12-27T16:40:06.902Z,3.20
2017-12-27T16:42:36.822Z,3.47
2017-12-27T16:45:06.689Z,3.23
2017-12-27T16:47:37.234Z,3.23
2017-12-27T16:50:07.757Z,3.80
2017-12-27T16:52:37.706Z,3.90
2017-12-27T16:55:07.621Z,4.20
2017-12-27T16:57:37.568Z,3.70
2017-12-27T17:00:07.469Z,3.60
2017-12-27T17:02:37.384Z,3.60
2017-12-27T17:05:07.259Z,3.07
2017-12-27T17:07:37.172Z,4.73
2017-12-27T17:10:07.062Z,3.67
2017-12-27T17:12:37.178Z,3.33
2017-12-27T17:15:07.099Z,3.03
2017-12-27T17:17:36.992Z,3.90
2017-12-27T17:20:06.883Z,3.20
2017-12-27T17:22:36.779Z,3.57
2017-12-27T17:25:06.666Z,3.73
2017-12-27T17:27:36.531Z,3.50
2017-12-27T17:30:06.474Z,3.43
2017-12-27T17:32:36.338Z,3.87
2017-12-27T17:35:06.252Z,3.47
2017-12-27T17:37:36.127Z,3.90
2017-12-27T17:40:09.736Z,4.10
2017-12-27T17:42:39.625Z,3.83
2017-12-27T17:45:09.576Z,4.70
2017-12-27T17:47:39.452Z,4.10
2017-12-27T17:50:09.405Z,6.70
2017-12-27T17:52:39.264Z,4.57
2017-12-27T17:55:09.345Z,5.13
2017-12-27T17:57:39.234Z,4.80
2017-12-27T18:00:10.238Z,4.83
2017-12-27T18:02:40.163Z,5.23
2017-12-27T18:05:10.069Z,4.77
2017-12-27T18:07:40.090Z,5.20
2017-12-27T18:10:09.998Z,5.80
2017-12-27T18:12:39.927Z,6.07
2017-12-27T18:15:09.887Z,5.70
2017-12-27T18:17:39.817Z,5.67
2017-12-27T18:20:10.553Z,5.50
2017-12-27T18:22:40.456Z,6.20
2017-12-27T18:25:10.596Z,6.30
2017-12-27T18:27:40.711Z,6.43
2017-12-27T18:30:10.641Z,6.20
2017-12-27T18:32:40.552Z,6.20
2017-12-27T18:35:10.432Z,6.70
2017-12-27T18:37:40.353Z,6.70
2017-12-27T18:40:10.264Z,7.00
2017-12-27T18:42:40.164Z,7.30
2017-12-27T18:45:10.071Z,7.50
2017-12-27T18:47:39.998Z,7.20
2017-12-27T18:50:09.913Z,7.30
2017-12-27T18:52:39.990Z,7.30
2017-12-27T18:55:09.889Z,6.63
2017-12-27T18:57:39.853Z,7.30
2017-12-27T19:00:09.789Z,7.47
2017-12-27T19:02:39.684Z,6.87
2017-12-27T19:05:09.603Z,7.27
2017-12-27T19:07:39.595Z,8.10
2017-12-27T19:10:09.532Z,8.03
2017-12-27T19:12:39.502Z,6.90
2017-12-27T19:15:09.441Z,8.27
2017-12-27T19:17:39.403Z,6.90
2017-12-27T19:20:09.364Z,6.77
2017-12-27T19:22:39.340Z,6.80
2017-12-27T19:25:09.258Z,6.73
2017-12-27T19:27:39.184Z,6.47
2017-12-27T19:30:09.325Z,9.40
2017-12-27T19:32:39.201Z,6.90
2017-12-27T19:35:09.240Z,7.17
2017-12-27T19:37:39.143Z,7.60
2017-12-27T19:40:09.089Z,7.80
2017-12-27T19:42:38.987Z,7.37
2017-12-27T19:45:08.895Z,7.50
2017-12-27T19:47:38.803Z,7.07
2017-12-27T19:50:08.711Z,6.33
2017-12-27T19:52:38.624Z,8.13
2017-12-27T19:55:08.595Z,7.27
2017-12-27T19:57:38.546Z,7.67
2017-12-27T20:00:08.428Z,7.20
2017-12-27T20:02:38.443Z,7.30
2017-12-27T20:05:08.360Z,9.03
2017-12-27T20:07:38.275Z,6.97
2017-12-27T20:10:08.316Z,7.27
2017-12-27T20:12:38.270Z,7.37
2017-12-27T20:15:08.274Z,7.43
2017-12-27T20:17:38.194Z,6.80
2017-12-27T20:20:08.217Z,7.90
2017-12-27T20:22:38.263Z,7.10
2017-12-27T20:25:08.175Z,7.43
2017-12-27T20:27:38.103Z,6.53
2017-12-27T20:30:08.038Z,8.20
2017-12-27T20:32:38.115Z,15.60
2017-12-27T20:35:08.028Z,13.63
2017-12-27T20:37:39.188Z,8.90
2017-12-27T20:40:09.092Z,7.37
2017-12-27T20:42:39.032Z,7.10
2017-12-27T20:45:08.995Z,7.90
2017-12-27T20:47:38.903Z,7.00
2017-12-27T20:50:08.838Z,11.43
2017-12-27T20:52:38.725Z,13.43
2017-12-27T20:55:08.649Z,12.27
2017-12-27T20:57:38.579Z,10.40
2017-12-27T21:00:08.549Z,7.50
2017-12-27T21:02:38.470Z,7.50
2017-12-27T21:05:08.473Z,7.83
2017-12-27T21:07:38.352Z,12.63
2017-12-27T21:10:08.256Z,13.80
2017-12-27T21:12:38.162Z,8.07
2017-12-27T21:15:08.075Z,7.03
2017-12-27T21:17:37.961Z,12.90
2017-12-27T21:20:07.879Z,7.60
2017-12-27T21:22:37.810Z,10.87
2017-12-27T21:25:07.754Z,8.13
2017-12-27T21:27:37.695Z,9.03
2017-12-27T21:30:07.662Z,6.73
2017-12-27T21:32:37.663Z,16.90
2017-12-27T21:35:07.564Z,10.00
2017-12-27T21:37:37.470Z,23.13
2017-12-27T21:40:07.341Z,9.40
2017-12-27T21:42:37.344Z,19.00
2017-12-27T21:45:07.247Z,10.37
2017-12-27T21:47:42.968Z,19.70
2017-12-27T21:50:12.880Z,7.00
2017-12-27T21:52:42.802Z,8.17
2017-12-27T21:55:12.737Z,7.27
2017-12-27T21:57:42.949Z,6.90
2017-12-27T22:00:18.480Z,7.30
2017-12-27T22:02:48.420Z,6.83
2017-12-27T22:05:18.429Z,7.47
2017-12-27T22:07:48.582Z,6.60
2017-12-27T22:10:18.627Z,7.00
2017-12-27T22:12:48.517Z,7.83
2017-12-27T22:15:18.547Z,7.30
2017-12-27T22:17:48.472Z,7.13
2017-12-27T22:20:24.122Z,7.20
2017-12-27T22:22:54.046Z,7.63
2017-12-27T22:25:23.964Z,7.13
2017-12-27T22:27:53.962Z,7.20
2017-12-27T22:30:23.938Z,6.33
2017-12-27T22:32:53.848Z,6.80
2017-12-27T22:35:23.770Z,7.03
2017-12-27T22:37:53.756Z,7.10
2017-12-27T22:40:23.632Z,7.20
2017-12-27T22:42:53.574Z,6.57
2017-12-27T22:45:23.451Z,7.70
2017-12-27T22:47:53.388Z,6.17
2017-12-27T22:50:23.275Z,6.53
2017-12-27T22:52:53.225Z,7.67
2017-12-27T22:55:23.168Z,7.83
2017-12-27T22:57:53.262Z,7.60
2017-12-27T23:00:23.201Z,7.27
2017-12-27T23:02:53.292Z,6.70
2017-12-27T23:05:23.202Z,6.53
2017-12-27T23:07:53.116Z,7.10
2017-12-27T23:10:23.040Z,7.40
2017-12-27T23:12:53.005Z,7.10
2017-12-27T23:15:22.934Z,8.13
2017-12-27T23:17:53.026Z,7.07
2017-12-27T23:20:23.160Z,6.83
2017-12-27T23:22:53.078Z,7.87
2017-12-27T23:25:22.991Z,10.90
2017-12-27T23:27:53.666Z,16.97
2017-12-27T23:30:25.087Z,8.23
2017-12-27T23:32:54.965Z,6.47
2017-12-27T23:35:24.842Z,6.80
2017-12-27T23:37:54.830Z,6.37
2017-12-27T23:40:24.783Z,7.80
2017-12-27T23:42:54.697Z,7.40
2017-12-27T23:45:24.590Z,6.77
2017-12-27T23:47:54.505Z,8.60
2017-12-27T23:50:24.424Z,6.80
2017-12-27T23:52:54.327Z,7.20
2017-12-27T23:55:24.264Z,6.60
2017-12-27T23:57:54.215Z,6.90
